Walthill, Nebraska
Current Conditions -  °F | °C
As of 5:52 PM on Sunday 23 Nov 2014 (Local Time) from KSUX Reporting Station
Broken Clouds Broken Clouds  
Wind Chill: 35°   Ceiling: 5000
Heat Index: 42°   Visibility: 10mi
Dew Point: 30°   Wind: 15mph
Humidity: 62%   Direction: 330°NNW
Pressure: 29.53"   Gusts: NA
Location:  42.15°N, 96.49°W
Report Text: KSUX 232352Z 33013KT 10SM BKN050 06/M01 A2953 RMK AO2 SLP004 60000 T00561011 10078 20056 50012
Loading
Personal Weather Stations






























Interactive Weather Map New forecast layout! Learn more

10-Day Weather Forecast

Advertisements
Track Severe Weather on mobile